Time;durP1;ratioP1;P1;durP2;ratioP2;P2;SDS_P1;SDS_P2;PMS_P1;PMS_P2;Temp;Humidity;BMP_temperature;BMP_pressure;BME280_temperature;BME280_humidity;BME280_pressure;Samples;Min_cycle;Max_cycle;Signal;HPM_P1;HPM_P2
2021/10/28 00:14:19;;;;;;;16.40;12.00;;;23.00;36.20;;;;;;4784357;29;20347;-57
2021/10/28 00:16:49;;;;;;;13.85;10.10;;;23.00;36.20;;;;;;4782838;29;20048;-56
2021/10/28 00:19:18;;;;;;;13.98;11.02;;;23.00;36.10;;;;;;4768400;29;20063;-53
2021/10/28 00:21:45;;;;;;;16.00;11.82;;;23.00;36.10;;;;;;4785101;29;20351;-54
2021/10/28 00:24:14;;;;;;;14.48;11.05;;;23.00;36.10;;;;;;4783924;29;20067;-55
2021/10/28 00:26:46;;;;;;;13.30;11.05;;;23.00;36.10;;;;;;4783034;29;20461;-55
2021/10/28 00:29:16;;;;;;;15.82;12.02;;;23.00;36.10;;;;;;4766639;29;20051;-56
2021/10/28 00:31:46;;;;;;;16.00;11.95;;;22.90;36.10;;;;;;4783900;29;20055;-54
2021/10/28 00:34:14;;;;;;;13.95;11.23;;;22.90;36.20;;;;;;4783589;29;20059;-55
2021/10/28 00:36:44;;;;;;;15.48;12.00;;;22.90;36.20;;;;;;4783932;29;20055;-55
2021/10/28 00:39:12;;;;;;;14.88;11.45;;;22.90;36.20;;;;;;4765115;29;20059;-54
2021/10/28 00:41:40;;;;;;;15.55;11.57;;;22.90;36.30;;;;;;4783893;29;20059;-56
2021/10/28 00:44:10;;;;;;;14.02;11.25;;;22.90;36.20;;;;;;4782975;30;20043;-56
2021/10/28 00:46:39;;;;;;;14.70;12.00;;;22.90;36.20;;;;;;4783848;29;20112;-56
2021/10/28 00:49:09;;;;;;;14.32;11.70;;;22.90;36.20;;;;;;4766221;29;20047;-56
2021/10/28 00:51:37;;;;;;;13.65;10.90;;;22.90;36.20;;;;;;4783914;29;20112;-56
2021/10/28 00:54:06;;;;;;;13.27;10.45;;;22.90;36.20;;;;;;4783266;29;20059;-55
2021/10/28 00:56:33;;;;;;;13.27;10.85;;;22.90;36.20;;;;;;4783171;29;20047;-56
2021/10/28 00:59:01;;;;;;;13.70;11.10;;;22.90;36.30;;;;;;4765473;29;20261;-57
2021/10/28 01:01:29;;;;;;;13.98;11.27;;;22.80;36.20;;;;;;4782600;29;20108;-56
2021/10/28 01:03:57;;;;;;;14.05;10.90;;;22.80;36.30;;;;;;4783241;29;20677;-56
2021/10/28 01:06:24;;;;;;;14.73;11.32;;;22.80;36.30;;;;;;4784027;29;20055;-55
2021/10/28 01:08:52;;;;;;;13.52;10.82;;;22.80;36.40;;;;;;4766325;29;20483;-55
2021/10/28 01:11:19;;;;;;;14.60;10.82;;;22.80;36.40;;;;;;4777709;30;20067;-56
2021/10/28 01:13:47;;;;;;;15.40;11.15;;;22.80;36.40;;;;;;4783091;29;20142;-56
2021/10/28 01:16:14;;;;;;;13.73;10.93;;;22.80;36.50;;;;;;4782960;29;20335;-56
2021/10/28 01:18:43;;;;;;;11.95;10.02;;;22.80;36.50;;;;;;4771075;29;20388;-55
2021/10/28 01:21:10;;;;;;;13.10;10.63;;;22.80;36.50;;;;;;4773025;30;20056;-56
2021/10/28 01:23:41;;;;;;;14.52;10.48;;;22.80;36.50;;;;;;4765227;30;20060;-56
2021/10/28 01:26:11;;;;;;;12.98;10.50;;;22.80;36.50;;;;;;4764832;30;20052;-55
2021/10/28 01:28:40;;;;;;;;;;;22.70;36.40;;;;;;4761708;30;20278;-55
2021/10/28 01:31:10;;;;;;;13.50;10.80;;;22.80;36.50;;;;;;4778393;29;19929;-56
2021/10/28 01:33:40;;;;;;;16.40;11.50;;;22.80;36.50;;;;;;4782708;29;20055;-54
2021/10/28 01:36:08;;;;;;;13.80;10.25;;;22.80;36.40;;;;;;4782626;29;20062;-55
2021/10/28 01:38:41;;;;;;;13.05;10.38;;;22.80;36.40;;;;;;4769043;29;20059;-56
2021/10/28 01:41:10;;;;;;;12.43;10.02;;;22.80;36.40;;;;;;4776453;29;20100;-56
2021/10/28 01:43:37;;;;;;;12.23;10.18;;;22.80;36.30;;;;;;4783210;29;20531;-55
2021/10/28 01:46:06;;;;;;;14.05;10.50;;;22.80;36.30;;;;;;4781962;29;20059;-56
2021/10/28 01:48:37;;;;;;;12.98;10.73;;;22.80;36.30;;;;;;4769831;29;20544;-55
2021/10/28 01:51:04;;;;;;;11.60;9.93;;;22.80;36.20;;;;;;4776664;29;20059;-56
2021/10/28 01:53:34;;;;;;;12.15;9.68;;;22.80;36.20;;;;;;4782826;29;20066;-56
2021/10/28 01:56:01;;;;;;;16.40;12.02;;;22.80;36.20;;;;;;4782341;29;20213;-56
2021/10/28 01:58:28;;;;;;;11.77;9.35;;;22.90;36.20;;;;;;4769228;29;20323;-56
2021/10/28 02:00:55;;;;;;;13.73;10.57;;;22.80;36.20;;;;;;4777357;29;20104;-55
2021/10/28 02:03:25;;;;;;;13.15;9.77;;;22.80;36.20;;;;;;4780695;29;20055;-56
2021/10/28 02:05:53;;;;;;;12.55;10.27;;;22.80;36.20;;;;;;4782124;29;20133;-56
2021/10/28 02:08:21;;;;;;;13.00;10.00;;;22.80;36.20;;;;;;4769918;29;20055;-56
2021/10/28 02:10:48;;;;;;;12.20;9.43;;;22.80;36.20;;;;;;4758037;30;20064;-56
2021/10/28 02:13:16;;;;;;;14.25;9.68;;;22.80;36.20;;;;;;4764734;30;20056;-56
2021/10/28 02:15:43;;;;;;;11.55;9.82;;;22.80;36.20;;;;;;4764092;30;20460;-56
2021/10/28 02:18:12;;;;;;;13.90;10.35;;;22.70;36.20;;;;;;4760865;30;20096;-57
2021/10/28 02:20:41;;;;;;;13.63;10.13;;;22.70;36.20;;;;;;4772215;29;20112;-57
2021/10/28 02:23:09;;;;;;;12.38;9.75;;;22.70;36.20;;;;;;4782364;29;20047;-56
2021/10/28 02:25:36;;;;;;;12.52;9.65;;;22.70;36.30;;;;;;4781823;29;20058;-56
2021/10/28 02:28:04;;;;;;;13.32;10.18;;;22.70;36.30;;;;;;4773880;29;20067;-56
2021/10/28 02:30:32;;;;;;;13.77;9.88;;;22.70;36.30;;;;;;4770143;30;20305;-56
2021/10/28 02:32:59;;;;;;;12.85;9.90;;;22.70;36.30;;;;;;4781759;29;20374;-53
2021/10/28 02:35:27;;;;;;;12.95;10.25;;;22.70;36.30;;;;;;4781585;29;20059;-56
2021/10/28 02:37:54;;;;;;;11.15;9.00;;;22.70;36.30;;;;;;4774189;29;20063;-56
2021/10/28 02:40:21;;;;;;;11.63;9.18;;;22.70;36.30;;;;;;4766426;30;20056;-56
2021/10/28 02:42:49;;;;;;;11.70;9.50;;;22.70;36.40;;;;;;4764155;30;20058;-54
2021/10/28 02:45:16;;;;;;;13.15;9.88;;;22.70;36.40;;;;;;4763888;30;20066;-56
2021/10/28 02:47:44;;;;;;;11.50;9.35;;;22.70;36.40;;;;;;4757576;30;20052;-56
2021/10/28 02:50:11;;;;;;;11.70;9.20;;;22.60;36.40;;;;;;4770914;29;20055;-56
2021/10/28 02:52:38;;;;;;;12.05;9.50;;;22.60;36.40;;;;;;4781420;29;20066;-56
2021/10/28 02:55:06;;;;;;;11.50;9.68;;;22.60;36.40;;;;;;4782127;29;20051;-55
2021/10/28 02:57:33;;;;;;;14.55;10.50;;;22.60;36.40;;;;;;4779023;29;20266;-56
2021/10/28 03:00:01;;;;;;;11.57;9.20;;;22.60;36.50;;;;;;4765178;29;20725;-55
2021/10/28 03:02:28;;;;;;;12.40;9.90;;;22.60;36.50;;;;;;4781534;29;20105;-56
2021/10/28 03:04:56;;;;;;;12.50;9.15;;;22.60;36.50;;;;;;4781479;29;20055;-55
2021/10/28 03:07:23;;;;;;;12.70;9.10;;;22.60;36.50;;;;;;4781255;29;20112;-56
2021/10/28 03:09:51;;;;;;;13.35;9.35;;;22.60;36.50;;;;;;4763405;29;20502;-56
2021/10/28 03:12:18;;;;;;;10.95;8.82;;;22.60;36.50;;;;;;4781722;29;20108;-58
2021/10/28 03:14:52;;;;;;;10.10;8.77;;;22.60;36.40;;;;;;4781743;29;20055;-55
2021/10/28 03:17:32;;;;;;;10.93;8.48;;;22.70;36.40;;;;;;4780106;29;20156;-56
2021/10/28 03:25:41;;;;;;;10.88;9.07;;;22.70;36.30;;;;;;4781834;29;20142;-55
2021/10/28 03:28:18;;;;;;;10.48;8.27;;;22.70;36.30;;;;;;4773599;29;20051;-55
2021/10/28 03:30:48;;;;;;;10.00;7.88;;;22.70;36.20;;;;;;4776562;29;20054;-51
2021/10/28 03:33:21;;;;;;;10.25;8.30;;;22.70;36.20;;;;;;4778890;29;20513;-56
2021/10/28 03:35:49;;;;;;;9.98;8.02;;;22.70;36.20;;;;;;4779642;29;20051;-55
2021/10/28 03:38:22;;;;;;;10.50;8.63;;;22.70;36.20;;;;;;4770246;29;20570;-56
2021/10/28 03:41:13;;;;;;;10.00;8.10;;;22.70;36.20;;;;;;4770384;30;20093;-55
2021/10/28 03:49:36;;;;;;;10.63;7.97;;;22.70;36.20;;;;;;4761737;29;20051;-55
2021/10/28 03:58:04;;;;;;;10.85;7.78;;;22.60;36.20;;;;;;4779008;29;20517;-56
2021/10/28 04:03:54;;;;;;;10.85;8.43;;;22.60;36.20;;;;;;4782960;29;20047;-56
2021/10/28 04:20:10;;;;;;;10.40;8.57;;;22.50;36.20;;;;;;4767089;29;20123;-55
2021/10/28 04:30:47;;;;;;;10.40;8.13;;;22.50;36.40;;;;;;4780278;29;20395;-56
2021/10/28 04:33:14;;;;;;;9.65;7.80;;;22.50;36.40;;;;;;4785187;29;20101;-56
2021/10/28 04:35:42;;;;;;;9.35;7.82;;;22.50;36.40;;;;;;4785720;29;20450;-56
2021/10/28 04:38:09;;;;;;;8.95;7.43;;;22.50;37.00;;;;;;4775002;29;20502;-56
2021/10/28 04:40:37;;;;;;;9.05;7.38;;;22.50;36.50;;;;;;4788296;29;20077;-56
2021/10/28 04:43:04;;;;;;;10.27;7.63;;;22.40;36.40;;;;;;4784189;30;20059;-56
2021/10/28 04:45:31;;;;;;;8.98;7.22;;;22.50;36.40;;;;;;4785103;29;20066;-54
2021/10/28 04:47:59;;;;;;;9.18;7.78;;;22.40;36.40;;;;;;4772098;29;20872;-56
2021/10/28 04:50:26;;;;;;;8.52;7.35;;;22.40;36.40;;;;;;4770391;30;20059;-54
2021/10/28 04:52:53;;;;;;;8.85;7.55;;;22.50;36.40;;;;;;4779274;29;20063;-55
2021/10/28 04:55:21;;;;;;;10.95;8.43;;;22.50;36.40;;;;;;4781352;30;20065;-56
2021/10/28 04:57:48;;;;;;;9.35;7.47;;;22.50;36.40;;;;;;4770720;30;20334;-56
2021/10/28 05:00:15;;;;;;;8.75;7.70;;;22.50;36.30;;;;;;4771746;29;20056;-58
2021/10/28 05:02:42;;;;;;;7.80;6.68;;;22.60;36.30;;;;;;4781718;30;20051;-56
2021/10/28 05:05:10;;;;;;;9.20;7.68;;;22.60;36.20;;;;;;4778343;30;20124;-56
2021/10/28 05:07:37;;;;;;;10.70;7.78;;;22.60;35.90;;;;;;4777510;29;20498;-57
2021/10/28 05:10:05;;;;;;;9.48;7.43;;;22.60;35.60;;;;;;4765451;30;20518;-55
2021/10/28 05:12:32;;;;;;;9.88;7.97;;;22.60;35.50;;;;;;4781518;29;20055;-55
2021/10/28 05:14:59;;;;;;;8.60;7.38;;;22.50;35.30;;;;;;4783594;29;20055;-58
2021/10/28 05:17:26;;;;;;;10.70;7.95;;;22.50;35.20;;;;;;4779333;29;20066;-56
2021/10/28 05:19:53;;;;;;;9.00;7.78;;;22.60;35.30;;;;;;4766753;29;20051;-55
2021/10/28 05:22:21;;;;;;;10.75;8.02;;;22.60;35.40;;;;;;4784506;29;20112;-56
2021/10/28 05:24:49;;;;;;;9.73;7.35;;;22.60;35.70;;;;;;4794582;29;20058;-55
2021/10/28 05:27:16;;;;;;;8.57;7.10;;;22.60;35.80;;;;;;4778244;29;20244;-56
2021/10/28 05:30:01;;;;;;;8.10;6.82;;;22.60;35.70;;;;;;4760010;29;20537;-57
2021/10/28 05:32:28;;;;;;;8.65;7.00;;;22.60;35.70;;;;;;4778669;29;20229;-56
2021/10/28 05:34:59;;;;;;;7.35;6.53;;;22.60;35.70;;;;;;4778784;29;20055;-52
2021/10/28 05:37:27;;;;;;;9.95;7.47;;;22.60;35.80;;;;;;4774143;29;20410;-54
2021/10/28 05:39:59;;;;;;;8.90;7.15;;;22.60;35.70;;;;;;4758571;30;20058;-55
2021/10/28 05:42:28;;;;;;;9.43;7.28;;;22.60;35.60;;;;;;4770695;30;20493;-54
2021/10/28 05:44:56;;;;;;;9.10;7.15;;;22.60;35.50;;;;;;4774420;30;20066;-55
2021/10/28 05:47:23;;;;;;;10.15;7.93;;;22.70;35.40;;;;;;4773065;30;20059;-54
2021/10/28 05:50:16;;;;;;;9.38;7.70;;;22.70;35.30;;;;;;4756216;30;20101;-56
2021/10/28 05:52:45;;;;;;;10.13;8.10;;;22.70;35.30;;;;;;4772578;29;20059;-56
2021/10/28 05:55:14;;;;;;;8.93;7.88;;;22.70;35.40;;;;;;4774697;29;20059;-56
2021/10/28 05:57:42;;;;;;;9.65;7.55;;;22.70;35.40;;;;;;4772456;29;20052;-54
2021/10/28 06:00:09;;;;;;;11.05;8.13;;;22.70;35.40;;;;;;4756831;29;20055;-57
2021/10/28 06:02:37;;;;;;;9.82;7.00;;;22.70;35.40;;;;;;4773934;29;20059;-55
2021/10/28 06:05:06;;;;;;;9.05;7.40;;;22.70;35.40;;;;;;4778514;29;20047;-57
2021/10/28 06:07:34;;;;;;;8.88;7.72;;;22.70;35.40;;;;;;4775199;29;20108;-57
2021/10/28 06:10:02;;;;;;;9.52;8.00;;;22.70;35.80;;;;;;4757022;29;20056;-57
2021/10/28 06:12:35;;;;;;;9.55;7.28;;;22.80;36.20;;;;;;4774750;30;20092;-56
2021/10/28 06:15:04;;;;;;;12.18;8.15;;;22.80;36.50;;;;;;4777692;30;20051;-56
2021/10/28 06:17:37;;;;;;;12.02;8.02;;;22.90;36.70;;;;;;4774322;29;20047;-58
2021/10/28 06:20:05;;;;;;;8.85;7.60;;;22.90;36.80;;;;;;4759381;29;20063;-56
2021/10/28 06:22:32;;;;;;;11.18;8.73;;;23.00;36.90;;;;;;4776361;29;20555;-58
2021/10/28 06:24:59;;;;;;;9.40;7.70;;;23.00;36.80;;;;;;4772247;30;20059;-56
2021/10/28 06:27:27;;;;;;;11.05;8.00;;;23.10;36.70;;;;;;4776105;29;20457;-57
2021/10/28 06:29:54;;;;;;;11.77;8.50;;;23.20;36.60;;;;;;4752899;29;20051;-57
2021/10/28 06:32:22;;;;;;;10.90;8.23;;;23.20;36.60;;;;;;4772473;30;21765;-57
2021/10/28 06:34:50;;;;;;;10.88;9.05;;;23.30;36.60;;;;;;4777957;29;20058;-56
2021/10/28 06:37:18;;;;;;;10.52;8.52;;;23.30;36.50;;;;;;4775682;29;20505;-56
2021/10/28 06:39:46;;;;;;;10.48;8.15;;;23.30;36.30;;;;;;4755832;29;20075;-55
2021/10/28 06:42:14;;;;;;;11.27;8.15;;;23.40;36.30;;;;;;4771573;29;20467;-55
2021/10/28 06:44:43;;;;;;;11.73;8.43;;;23.40;36.20;;;;;;4787553;29;20059;-54
2021/10/28 06:47:11;;;;;;;10.70;8.90;;;23.50;36.20;;;;;;4773749;30;20059;-56
2021/10/28 06:49:41;;;;;;;10.38;8.88;;;23.50;36.10;;;;;;4754956;29;20047;-58
2021/10/28 06:52:13;;;;;;;13.02;8.88;;;23.60;36.10;;;;;;4776221;29;20051;-56
2021/10/28 06:54:42;;;;;;;14.88;9.30;;;23.60;36.10;;;;;;4776056;29;20066;-56
2021/10/28 06:57:46;;;;;;;9.57;8.60;;;23.70;36.20;;;;;;4775687;30;20044;-58
2021/10/28 07:02:45;;;;;;;11.23;8.93;;;23.80;36.10;;;;;;4770960;30;20055;-59
2021/10/28 07:05:12;;;;;;;12.30;9.70;;;23.80;36.00;;;;;;4774190;30;20055;-59
2021/10/28 07:07:40;;;;;;;11.35;9.00;;;23.80;36.00;;;;;;4784462;29;20063;-59
2021/10/28 07:10:14;;;;;;;10.38;8.60;;;23.90;36.00;;;;;;4756591;29;20055;-56
2021/10/28 07:12:52;;;;;;;10.48;8.52;;;23.90;35.90;;;;;;4775341;30;20059;-56
2021/10/28 07:15:30;;;;;;;12.43;9.98;;;24.00;35.90;;;;;;4774815;29;20429;-52
2021/10/28 07:18:10;;;;;;;10.63;9.10;;;24.00;36.00;;;;;;4762487;29;20054;-58
2021/10/28 07:21:04;;;;;;;12.30;9.18;;;24.00;35.90;;;;;;4765764;29;20109;-57
2021/10/28 07:23:57;;;;;;;10.05;8.52;;;24.10;35.90;;;;;;4773296;30;20287;-57
2021/10/28 07:26:41;;;;;;;12.77;9.05;;;24.10;35.90;;;;;;4772456;30;20063;-57
2021/10/28 07:32:21;;;;;;;10.70;9.10;;;24.20;35.60;;;;;;4774591;29;20124;-56
2021/10/28 07:34:58;;;;;;;17.08;10.23;;;24.20;35.40;;;;;;4773793;29;20105;-58
2021/10/28 08:14:05;;;;;;;14.35;11.00;;;24.70;35.60;;;;;;4774204;29;20055;-55
2021/10/28 08:16:56;;;;;;;13.93;10.73;;;24.70;35.50;;;;;;4774800;30;20143;-53
2021/10/28 08:19:40;;;;;;;12.45;10.23;;;24.70;35.50;;;;;;4760441;29;20453;-56
2021/10/28 08:22:23;;;;;;;14.70;11.55;;;24.70;35.40;;;;;;4776391;29;21188;-58
2021/10/28 08:30:26;;;;;;;15.95;11.13;;;24.80;35.40;;;;;;4759791;30;20063;-56
2021/10/28 08:32:55;;;;;;;13.52;10.60;;;24.80;35.60;;;;;;4775516;29;20059;-55
2021/10/28 08:35:52;;;;;;;17.38;11.20;;;24.90;35.90;;;;;;4770946;30;20055;-57
2021/10/28 08:38:25;;;;;;;11.98;9.88;;;24.90;36.00;;;;;;4766839;29;20157;-54
2021/10/28 08:40:54;;;;;;;14.60;11.00;;;24.90;36.10;;;;;;4768243;29;20074;-52
2021/10/28 08:43:31;;;;;;;13.30;10.50;;;24.90;36.10;;;;;;4779195;30;20095;-52
2021/10/28 08:46:01;;;;;;;15.65;10.70;;;24.90;36.00;;;;;;4778997;29;20043;-55
2021/10/28 08:48:31;;;;;;;18.98;12.30;;;24.90;35.70;;;;;;4771495;29;20117;-55
2021/10/28 08:51:14;;;;;;;12.00;10.60;;;24.90;35.60;;;;;;4762388;29;21569;-57
2021/10/28 08:53:58;;;;;;;17.50;11.60;;;24.90;35.50;;;;;;4772249;30;20059;-56
2021/10/28 08:56:58;;;;;;;18.45;11.45;;;25.00;35.40;;;;;;4775656;29;20054;-53
2021/10/28 08:59:33;;;;;;;12.77;11.15;;;24.90;35.30;;;;;;4758300;29;20484;-57
2021/10/28 09:25:40;;;;;;;14.77;11.00;;;25.20;35.70;;;;;;4774993;29;20097;-53
2021/10/28 09:28:39;;;;;;;14.38;11.55;;;25.20;35.40;;;;;;4770247;29;20112;-55
2021/10/28 09:31:14;;;;;;;15.98;10.85;;;25.20;35.20;;;;;;4762993;29;20061;-53
2021/10/28 09:33:58;;;;;;;18.42;11.13;;;25.20;35.00;;;;;;4773767;30;20057;-55
2021/10/28 09:45:57;;;;;;;21.77;10.15;;;25.40;34.90;;;;;;4775464;29;20062;-55
2021/10/28 09:51:17;;;;;;;18.63;10.45;;;25.40;35.10;;;;;;4769611;30;20051;-56
2021/10/28 09:54:09;;;;;;;14.00;9.80;;;25.40;35.10;;;;;;4761786;30;20429;-52
2021/10/28 09:59:50;;;;;;;18.55;10.10;;;25.40;35.10;;;;;;4756908;29;20059;-54
2021/10/28 10:02:36;;;;;;;12.57;10.07;;;25.50;35.10;;;;;;4774343;30;20059;-57
2021/10/28 10:05:16;;;;;;;12.48;9.48;;;25.50;35.10;;;;;;4774556;29;20047;-56
2021/10/28 10:07:47;;;;;;;14.25;9.38;;;25.40;35.10;;;;;;4771436;29;20054;-56
2021/10/28 10:10:19;;;;;;;12.38;9.80;;;25.50;35.60;;;;;;4763472;29;20112;-55
2021/10/28 10:12:48;;;;;;;14.88;9.82;;;25.50;35.10;;;;;;4773148;29;20059;-56
2021/10/28 10:15:16;;;;;;;13.00;9.63;;;25.50;35.00;;;;;;4774600;30;20059;-53
2021/10/28 10:17:57;;;;;;;15.23;9.20;;;25.60;35.00;;;;;;4783312;29;20410;-55
2021/10/28 10:20:34;;;;;;;11.82;9.20;;;25.60;35.00;;;;;;4767800;29;20055;-56
2021/10/28 10:23:26;;;;;;;12.20;9.35;;;25.60;34.90;;;;;;4776503;29;20055;-52
2021/10/28 11:05:36;;;;;;;9.88;8.48;;;25.80;34.20;;;;;;4772455;29;20137;-58
2021/10/28 11:20:37;;;;;;;11.90;8.15;;;25.80;33.00;;;;;;4762712;29;20497;-59
2021/10/28 12:15:38;;;;;;;9.18;7.47;;;25.90;33.80;;;;;;4777184;29;20062;-57
2021/10/28 12:19:53;;;;;;;8.60;7.70;;;26.00;34.00;;;;;;4766550;30;20059;-56
2021/10/28 12:21:10;;;;;;;9.87;7.60;;;26.00;34.60;;;;;;4758857;29;20059;-59
2021/10/28 12:44:21;;;;;;;10.82;6.65;;;26.10;35.10;;;;;;4773112;30;20116;-58
2021/10/28 12:47:21;;;;;;;14.13;7.53;;;26.20;34.90;;;;;;4778067;29;20179;-60
2021/10/28 12:50:09;;;;;;;9.63;7.30;;;26.20;35.00;;;;;;4756687;29;20059;-60
2021/10/28 12:53:05;;;;;;;7.72;6.55;;;26.20;34.90;;;;;;4773956;29;20059;-57
2021/10/28 13:03:59;;;;;;;7.18;6.47;;;26.30;34.20;;;;;;4774492;29;20145;-58
2021/10/28 13:06:43;;;;;;;8.27;7.22;;;26.30;34.10;;;;;;4775773;29;20051;-59
2021/10/28 13:34:58;;;;;;;8.32;6.55;;;26.40;33.40;;;;;;4764648;29;20090;-53
2021/10/28 13:48:38;;;;;;;8.15;5.78;;;26.30;31.60;;;;;;4766068;29;20426;-55
2021/10/28 13:54:05;;;;;;;7.55;6.45;;;26.30;31.60;;;;;;4774950;30;20136;-56
2021/10/28 14:22:11;;;;;;;7.53;5.78;;;26.30;31.90;;;;;;4769190;29;20083;-57
2021/10/28 14:30:53;;;;;;;6.00;5.03;;;26.30;32.00;;;;;;4757895;29;20086;-57
2021/10/28 14:38:46;;;;;;;6.13;5.53;;;26.20;31.60;;;;;;4763473;29;20055;-58
2021/10/28 15:01:17;;;;;;;8.15;5.90;;;26.00;31.50;;;;;;4771112;29;20464;-58
2021/10/28 15:28:39;;;;;;;9.10;6.15;;;25.60;31.70;;;;;;4765887;29;20093;-57
2021/10/28 15:31:43;;;;;;;8.02;5.68;;;25.60;31.70;;;;;;4774932;30;20482;-58
2021/10/28 15:34:24;;;;;;;7.45;6.05;;;25.60;31.80;;;;;;4767601;30;20051;-58
2021/10/28 15:36:47;;;;;;;7.45;5.63;;;25.50;31.80;;;;;;4776430;29;20162;-58
2021/10/28 15:39:33;;;;;;;7.95;5.80;;;25.50;31.80;;;;;;4768748;29;20522;-58
2021/10/28 15:53:30;;;;;;;7.32;5.97;;;25.30;32.80;;;;;;4778923;30;20142;-58
2021/10/28 15:59:26;;;;;;;7.68;6.72;;;25.20;32.60;;;;;;4771772;29;20112;-58
2021/10/28 16:21:44;;;;;;;10.00;6.90;;;25.20;32.70;;;;;;4778699;29;20139;-58
2021/10/28 16:23:48;;;;;;;7.90;6.43;;;24.90;35.20;;;;;;4783533;30;20344;-58
2021/10/28 16:26:15;;;;;;;10.90;6.38;;;24.90;35.40;;;;;;4783242;29;20355;-58
2021/10/28 16:28:42;;;;;;;10.60;6.80;;;24.90;35.40;;;;;;4771673;29;20494;-57
2021/10/28 16:31:10;;;;;;;9.10;7.07;;;24.80;35.20;;;;;;4777800;29;20055;-57
2021/10/28 16:33:37;;;;;;;9.57;6.70;;;24.80;35.10;;;;;;4784020;29;20351;-57
2021/10/28 16:36:04;;;;;;;10.60;7.55;;;24.80;35.00;;;;;;4783673;29;20532;-58
2021/10/28 16:38:31;;;;;;;11.20;7.25;;;24.70;34.80;;;;;;4771204;29;20172;-57
2021/10/28 16:40:59;;;;;;;9.85;7.05;;;24.70;34.80;;;;;;4778349;29;20059;-58
2021/10/28 16:43:26;;;;;;;11.00;7.90;;;24.70;34.80;;;;;;4783869;29;20086;-57
2021/10/28 16:45:53;;;;;;;10.60;7.45;;;24.70;34.80;;;;;;4783698;29;20054;-57
2021/10/28 16:48:21;;;;;;;10.50;8.30;;;24.60;34.70;;;;;;4774841;29;20383;-58
2021/10/28 16:50:51;;;;;;;12.32;8.18;;;24.60;34.70;;;;;;4774631;29;20047;-58
2021/10/28 16:53:20;;;;;;;14.02;9.38;;;24.60;34.70;;;;;;4783640;29;20114;-58
2021/10/28 16:55:57;;;;;;;11.23;8.32;;;24.50;34.70;;;;;;4782150;29;20079;-58
2021/10/28 16:58:24;;;;;;;11.05;8.38;;;24.50;34.70;;;;;;4767025;29;20551;-57
2021/10/28 17:00:53;;;;;;;13.77;9.95;;;24.50;34.80;;;;;;4772661;29;20113;-57
2021/10/28 17:03:21;;;;;;;15.38;9.02;;;24.50;35.00;;;;;;4783207;29;20395;-57
2021/10/28 17:05:49;;;;;;;10.80;8.43;;;24.50;35.10;;;;;;4783009;29;20059;-57
2021/10/28 17:08:17;;;;;;;9.55;8.30;;;24.50;35.10;;;;;;4775174;29;20421;-57
2021/10/28 17:10:44;;;;;;;13.20;9.30;;;24.40;35.10;;;;;;4771671;29;20558;-57
2021/10/28 17:13:13;;;;;;;11.82;8.95;;;24.40;35.20;;;;;;4783077;29;20051;-59
2021/10/28 17:15:40;;;;;;;11.27;8.95;;;24.40;35.20;;;;;;4782132;29;20055;-57
2021/10/28 17:18:08;;;;;;;11.73;8.85;;;24.40;35.30;;;;;;4775556;29;20491;-57
2021/10/28 17:20:36;;;;;;;12.68;9.20;;;24.40;35.30;;;;;;4771470;29;20148;-58
2021/10/28 17:23:05;;;;;;;13.10;9.75;;;24.30;35.30;;;;;;4783459;29;20153;-58
2021/10/28 17:25:38;;;;;;;12.48;8.88;;;24.30;35.40;;;;;;4782752;29;20069;-58
2021/10/28 17:28:07;;;;;;;16.15;10.02;;;24.30;35.50;;;;;;4775230;29;20087;-58
2021/10/28 17:30:34;;;;;;;13.50;9.27;;;24.20;35.60;;;;;;4772091;29;20059;-57
2021/10/28 17:33:02;;;;;;;13.43;9.60;;;24.20;35.60;;;;;;4782638;29;20363;-58
2021/10/28 17:35:29;;;;;;;11.93;9.80;;;24.20;35.70;;;;;;4783051;29;20281;-58
2021/10/28 17:38:00;;;;;;;12.40;9.37;;;24.20;35.80;;;;;;4774262;29;20266;-57
2021/10/28 17:40:28;;;;;;;15.07;9.20;;;24.10;35.80;;;;;;4771961;29;20357;-58
2021/10/28 17:42:57;;;;;;;12.07;9.38;;;24.10;35.80;;;;;;4782221;29;20051;-58
2021/10/28 17:45:26;;;;;;;12.23;9.45;;;24.10;35.80;;;;;;4786066;29;20090;-58
2021/10/28 17:47:55;;;;;;;12.88;9.45;;;24.10;35.80;;;;;;4778378;29;20341;-58
2021/10/28 17:50:24;;;;;;;13.00;10.15;;;24.10;35.90;;;;;;4773571;29;20117;-58
2021/10/28 17:52:51;;;;;;;13.05;9.88;;;24.10;35.90;;;;;;4784224;29;20055;-57
2021/10/28 17:55:18;;;;;;;16.52;9.68;;;24.00;35.90;;;;;;4783397;29;20656;-58
2021/10/28 17:57:47;;;;;;;12.13;9.20;;;24.00;35.90;;;;;;4781768;29;20051;-60
2021/10/28 18:00:18;;;;;;;13.55;10.30;;;24.00;35.90;;;;;;4772362;29;20056;-57
2021/10/28 18:02:45;;;;;;;13.60;10.55;;;24.00;35.90;;;;;;4783524;29;20090;-57
2021/10/28 18:05:32;;;;;;;13.20;10.38;;;23.90;35.90;;;;;;4783616;29;20051;-58
2021/10/28 18:07:59;;;;;;;12.63;10.10;;;23.90;35.90;;;;;;4776054;29;20067;-57
2021/10/28 18:10:26;;;;;;;14.38;10.48;;;23.90;35.90;;;;;;4774607;29;20138;-58
2021/10/28 18:12:55;;;;;;;15.98;10.32;;;23.90;36.00;;;;;;4782869;29;20051;-57
2021/10/28 18:15:24;;;;;;;14.02;10.35;;;23.90;35.90;;;;;;4783432;29;20055;-57
2021/10/28 18:17:51;;;;;;;14.95;10.45;;;23.90;35.90;;;;;;4776466;29;20083;-58
2021/10/28 18:20:18;;;;;;;13.43;10.15;;;23.90;35.90;;;;;;4772246;29;20058;-58
2021/10/28 18:22:48;;;;;;;14.20;10.70;;;23.90;35.90;;;;;;4783847;29;20086;-57
2021/10/28 18:25:15;;;;;;;12.15;9.70;;;23.80;35.90;;;;;;4782909;29;20134;-58
2021/10/28 18:27:42;;;;;;;15.25;10.20;;;23.90;35.90;;;;;;4781620;29;20208;-57
2021/10/28 18:30:12;;;;;;;15.85;10.95;;;23.80;35.90;;;;;;4767021;29;20055;-58
2021/10/28 18:32:41;;;;;;;14.48;10.85;;;23.80;35.90;;;;;;4783010;29;20086;-58
2021/10/28 18:35:11;;;;;;;13.02;10.02;;;23.80;35.90;;;;;;4783106;29;20585;-57
2021/10/28 18:37:41;;;;;;;15.43;10.90;;;23.80;35.90;;;;;;4780365;29;20073;-57
2021/10/28 18:40:09;;;;;;;;;;;23.80;35.90;;;;;;4769755;29;20059;-57
2021/10/28 18:42:37;;;;;;;15.15;10.98;;;23.80;35.90;;;;;;4782700;29;19925;-58
2021/10/28 18:45:06;;;;;;;15.27;11.00;;;23.80;35.80;;;;;;4782508;29;20147;-58
2021/10/28 18:47:47;;;;;;;12.30;10.10;;;23.80;35.80;;;;;;4778044;29;20464;-57
2021/10/28 18:50:15;;;;;;;16.17;11.43;;;23.80;35.90;;;;;;4771383;29;20169;-57
2021/10/28 18:52:42;;;;;;;15.65;11.70;;;23.80;35.80;;;;;;4783013;29;20078;-57
2021/10/28 18:55:09;;;;;;;14.15;10.80;;;23.80;35.90;;;;;;4782783;29;20051;-57
2021/10/28 18:57:36;;;;;;;14.82;11.23;;;23.70;35.90;;;;;;4780755;29;20099;-58
2021/10/28 19:00:06;;;;;;;15.07;10.98;;;23.70;35.80;;;;;;4769437;29;20055;-57
2021/10/28 19:02:36;;;;;;;15.68;11.63;;;23.70;35.90;;;;;;4782378;29;20384;-57
2021/10/28 19:05:05;;;;;;;20.10;11.90;;;23.70;35.80;;;;;;4783040;29;20158;-57
2021/10/28 19:07:36;;;;;;;12.15;10.63;;;23.70;35.90;;;;;;4780939;29;20139;-58
2021/10/28 19:10:04;;;;;;;14.00;11.40;;;23.70;36.50;;;;;;4766003;29;20108;-59
2021/10/28 19:12:32;;;;;;;15.07;11.32;;;23.70;35.90;;;;;;4782869;29;20047;-58
2021/10/28 19:14:59;;;;;;;13.55;11.50;;;23.60;35.90;;;;;;4783082;29;20074;-57
2021/10/28 19:17:26;;;;;;;13.82;11.50;;;23.60;36.50;;;;;;4782218;29;20351;-58
2021/10/28 19:19:53;;;;;;;13.90;11.48;;;23.60;35.90;;;;;;4763195;29;20120;-58
2021/10/28 19:22:23;;;;;;;17.10;12.45;;;23.60;35.90;;;;;;4782600;29;20064;-58
2021/10/28 19:24:50;;;;;;;17.65;12.73;;;23.60;36.00;;;;;;4795637;29;20055;-57
2021/10/28 19:27:17;;;;;;;17.58;12.50;;;23.60;36.00;;;;;;4782215;29;20059;-57
2021/10/28 19:29:51;;;;;;;15.75;12.05;;;23.50;35.90;;;;;;4764977;29;20079;-58
2021/10/28 19:32:22;;;;;;;14.30;10.85;;;23.50;36.00;;;;;;4783927;29;20051;-58
2021/10/28 19:34:49;;;;;;;;;;;23.50;36.00;;;;;;4785160;29;20454;-58
2021/10/28 19:37:21;;;;;;;17.25;12.52;;;23.50;36.00;;;;;;4785803;29;19980;-57
2021/10/28 19:46:08;;;;;;;14.10;11.48;;;23.50;36.10;;;;;;4784955;29;20071;-57
2021/10/28 19:48:11;;;;;;;16.52;12.25;;;23.50;36.10;;;;;;4778165;29;20162;-58
2021/10/28 19:50:38;;;;;;;18.08;12.90;;;23.40;36.00;;;;;;4786352;29;20111;-59
2021/10/28 19:53:05;;;;;;;19.08;13.32;;;23.40;36.00;;;;;;4804255;29;20111;-57
2021/10/28 19:55:33;;;;;;;17.45;12.57;;;23.40;36.00;;;;;;4803690;29;20141;-58
2021/10/28 19:58:00;;;;;;;19.15;13.63;;;23.40;36.10;;;;;;4792999;29;20289;-57
2021/10/28 20:00:33;;;;;;;19.20;13.70;;;23.40;36.10;;;;;;4774255;29;20055;-57
2021/10/28 20:03:26;;;;;;;17.27;13.00;;;23.40;36.00;;;;;;4785401;29;20329;-58
2021/10/28 20:14:21;;;;;;;17.40;13.10;;;23.40;36.10;;;;;;4785713;29;20479;-57
2021/10/28 20:22:23;;;;;;;20.63;15.25;;;23.40;36.00;;;;;;4785788;29;20113;-56
2021/10/28 20:24:50;;;;;;;18.27;13.88;;;23.40;36.00;;;;;;4785261;29;20059;-58
2021/10/28 20:27:18;;;;;;;20.25;14.57;;;23.40;36.00;;;;;;4784227;30;20517;-57